sensor_id;sensor_type;location;lat;lon;timestamp;temperature;humidity
23744;DHT22;12052;53.478;10.182;2022-09-28T00:01:43;9.00;99.90
23744;DHT22;12052;53.478;10.182;2022-09-28T00:04:09;9.10;99.90
23744;DHT22;12052;53.478;10.182;2022-09-28T00:06:35;9.10;99.90
23744;DHT22;12052;53.478;10.182;2022-09-28T00:09:01;9.10;99.90
23744;DHT22;12052;53.478;10.182;2022-09-28T00:11:27;9.00;99.90
23744;DHT22;12052;53.478;10.182;2022-09-28T00:13:56;9.00;99.90
23744;DHT22;12052;53.478;10.182;2022-09-28T00:16:25;9.00;99.90
23744;DHT22;12052;53.478;10.182;2022-09-28T00:18:52;9.00;99.90
23744;DHT22;12052;53.478;10.182;2022-09-28T00:21:23;9.00;99.90
23744;DHT22;12052;53.478;10.182;2022-09-28T00:23:53;9.00;99.90
23744;DHT22;12052;53.478;10.182;2022-09-28T00:26:52;9.00;99.90
23744;DHT22;12052;53.478;10.182;2022-09-28T00:29:35;9.00;99.90
23744;DHT22;12052;53.478;10.182;2022-09-28T00:32:08;9.00;99.90
23744;DHT22;12052;53.478;10.182;2022-09-28T00:34:36;9.00;99.90
23744;DHT22;12052;53.478;10.182;2022-09-28T00:37:03;9.00;99.90
23744;DHT22;12052;53.478;10.182;2022-09-28T00:39:29;9.00;99.90
23744;DHT22;12052;53.478;10.182;2022-09-28T00:42:01;8.90;99.90
23744;DHT22;12052;53.478;10.182;2022-09-28T00:49:51;8.80;99.90
23744;DHT22;12052;53.478;10.182;2022-09-28T00:52:54;8.80;99.90
23744;DHT22;12052;53.478;10.182;2022-09-28T00:55:15;8.80;99.90
23744;DHT22;12052;53.478;10.182;2022-09-28T00:57:45;8.80;99.90
23744;DHT22;12052;53.478;10.182;2022-09-28T01:00:12;8.80;99.90
23744;DHT22;12052;53.478;10.182;2022-09-28T01:02:38;8.80;99.90
23744;DHT22;12052;53.478;10.182;2022-09-28T01:05:05;8.70;99.90
23744;DHT22;12052;53.478;10.182;2022-09-28T01:07:31;8.70;99.90
23744;DHT22;12052;53.478;10.182;2022-09-28T01:09:57;8.70;99.90
23744;DHT22;12052;53.478;10.182;2022-09-28T01:12:23;8.70;99.90
23744;DHT22;12052;53.478;10.182;2022-09-28T01:14:49;8.60;99.90
23744;DHT22;12052;53.478;10.182;2022-09-28T01:17:29;8.60;99.90
23744;DHT22;12052;53.478;10.182;2022-09-28T01:23:09;8.50;99.90
23744;DHT22;12052;53.478;10.182;2022-09-28T01:25:54;8.50;99.90
23744;DHT22;12052;53.478;10.182;2022-09-28T01:28:26;8.40;99.90
23744;DHT22;12052;53.478;10.182;2022-09-28T01:33:36;8.40;99.90
23744;DHT22;12052;53.478;10.182;2022-09-28T01:36:26;8.30;99.90
23744;DHT22;12052;53.478;10.182;2022-09-28T01:38:55;8.30;99.90
23744;DHT22;12052;53.478;10.182;2022-09-28T01:41:22;8.20;99.90
23744;DHT22;12052;53.478;10.182;2022-09-28T01:43:53;8.20;99.90
23744;DHT22;12052;53.478;10.182;2022-09-28T01:46:22;8.20;99.90
23744;DHT22;12052;53.478;10.182;2022-09-28T01:49:05;8.20;99.90
23744;DHT22;12052;53.478;10.182;2022-09-28T01:51:42;8.10;99.90
23744;DHT22;12052;53.478;10.182;2022-09-28T01:54:13;8.10;99.90
23744;DHT22;12052;53.478;10.182;2022-09-28T01:56:49;8.10;99.90
23744;DHT22;12052;53.478;10.182;2022-09-28T01:59:28;8.00;99.90
23744;DHT22;12052;53.478;10.182;2022-09-28T02:02:15;8.00;99.90
23744;DHT22;12052;53.478;10.182;2022-09-28T02:05:03;8.00;99.90
23744;DHT22;12052;53.478;10.182;2022-09-28T02:07:41;7.90;99.90
23744;DHT22;12052;53.478;10.182;2022-09-28T02:10:14;7.90;99.90
23744;DHT22;12052;53.478;10.182;2022-09-28T02:13:17;7.90;99.90
23744;DHT22;12052;53.478;10.182;2022-09-28T02:15:52;7.80;99.90
23744;DHT22;12052;53.478;10.182;2022-09-28T02:18:18;7.80;99.90
23744;DHT22;12052;53.478;10.182;2022-09-28T02:20:51;7.70;99.90
23744;DHT22;12052;53.478;10.182;2022-09-28T02:23:22;7.70;99.90
23744;DHT22;12052;53.478;10.182;2022-09-28T02:26:02;7.70;99.90
23744;DHT22;12052;53.478;10.182;2022-09-28T02:28:29;7.70;99.90
23744;DHT22;12052;53.478;10.182;2022-09-28T02:30:55;7.70;99.90
23744;DHT22;12052;53.478;10.182;2022-09-28T02:33:27;7.70;99.90
23744;DHT22;12052;53.478;10.182;2022-09-28T02:35:53;7.60;99.90
23744;DHT22;12052;53.478;10.182;2022-09-28T02:38:19;7.60;99.90
23744;DHT22;12052;53.478;10.182;2022-09-28T02:40:56;7.60;99.90
23744;DHT22;12052;53.478;10.182;2022-09-28T02:51:39;7.50;99.90
23744;DHT22;12052;53.478;10.182;2022-09-28T02:56:58;7.50;99.90
23744;DHT22;12052;53.478;10.182;2022-09-28T03:02:30;7.40;99.90
23744;DHT22;12052;53.478;10.182;2022-09-28T03:08:34;7.30;99.90
23744;DHT22;12052;53.478;10.182;2022-09-28T03:11:12;7.30;99.90
23744;DHT22;12052;53.478;10.182;2022-09-28T03:13:39;7.30;99.90
23744;DHT22;12052;53.478;10.182;2022-09-28T03:16:10;7.30;99.90
23744;DHT22;12052;53.478;10.182;2022-09-28T03:18:36;7.30;99.90
23744;DHT22;12052;53.478;10.182;2022-09-28T03:21:03;7.20;99.90
23744;DHT22;12052;53.478;10.182;2022-09-28T03:23:29;7.20;99.90
23744;DHT22;12052;53.478;10.182;2022-09-28T03:25:55;7.20;99.90
23744;DHT22;12052;53.478;10.182;2022-09-28T03:28:21;7.20;99.90
23744;DHT22;12052;53.478;10.182;2022-09-28T03:30:48;7.20;99.90
23744;DHT22;12052;53.478;10.182;2022-09-28T03:33:13;7.30;99.90
23744;DHT22;12052;53.478;10.182;2022-09-28T03:35:39;7.30;99.90
23744;DHT22;12052;53.478;10.182;2022-09-28T03:38:05;7.30;99.90
23744;DHT22;12052;53.478;10.182;2022-09-28T03:40:30;7.30;99.90
23744;DHT22;12052;53.478;10.182;2022-09-28T03:42:56;7.30;99.90
23744;DHT22;12052;53.478;10.182;2022-09-28T03:45:21;7.30;99.90
23744;DHT22;12052;53.478;10.182;2022-09-28T03:47:47;7.30;99.90
23744;DHT22;12052;53.478;10.182;2022-09-28T03:50:13;7.30;99.90
23744;DHT22;12052;53.478;10.182;2022-09-28T03:52:39;7.40;99.90
23744;DHT22;12052;53.478;10.182;2022-09-28T03:55:05;7.30;99.90
23744;DHT22;12052;53.478;10.182;2022-09-28T03:57:30;7.40;99.90
23744;DHT22;12052;53.478;10.182;2022-09-28T03:59:56;7.30;99.90
23744;DHT22;12052;53.478;10.182;2022-09-28T04:02:21;7.30;99.90
23744;DHT22;12052;53.478;10.182;2022-09-28T04:04:47;7.30;99.90
23744;DHT22;12052;53.478;10.182;2022-09-28T04:07:12;7.20;99.90
23744;DHT22;12052;53.478;10.182;2022-09-28T04:09:38;7.20;99.90
23744;DHT22;12052;53.478;10.182;2022-09-28T04:12:05;7.20;99.90
23744;DHT22;12052;53.478;10.182;2022-09-28T04:14:30;7.20;99.90
23744;DHT22;12052;53.478;10.182;2022-09-28T04:16:56;7.10;99.90
23744;DHT22;12052;53.478;10.182;2022-09-28T04:19:21;7.10;99.90
23744;DHT22;12052;53.478;10.182;2022-09-28T04:21:47;7.10;99.90
23744;DHT22;12052;53.478;10.182;2022-09-28T04:24:15;7.00;99.90
23744;DHT22;12052;53.478;10.182;2022-09-28T04:26:41;7.00;99.90
23744;DHT22;12052;53.478;10.182;2022-09-28T04:29:08;7.00;99.90
23744;DHT22;12052;53.478;10.182;2022-09-28T04:31:45;7.00;99.90
23744;DHT22;12052;53.478;10.182;2022-09-28T04:34:13;6.90;99.90
23744;DHT22;12052;53.478;10.182;2022-09-28T04:36:39;6.90;99.90
23744;DHT22;12052;53.478;10.182;2022-09-28T04:39:05;6.90;99.90
23744;DHT22;12052;53.478;10.182;2022-09-28T04:41:31;6.90;99.90
23744;DHT22;12052;53.478;10.182;2022-09-28T04:43:57;6.90;99.90
23744;DHT22;12052;53.478;10.182;2022-09-28T04:46:22;6.80;99.90
23744;DHT22;12052;53.478;10.182;2022-09-28T04:48:48;6.80;99.90
23744;DHT22;12052;53.478;10.182;2022-09-28T04:51:13;6.90;99.90
23744;DHT22;12052;53.478;10.182;2022-09-28T04:53:39;6.90;99.90
23744;DHT22;12052;53.478;10.182;2022-09-28T04:56:11;6.90;99.90
23744;DHT22;12052;53.478;10.182;2022-09-28T04:58:37;6.90;99.90
23744;DHT22;12052;53.478;10.182;2022-09-28T05:01:05;6.90;99.90
23744;DHT22;12052;53.478;10.182;2022-09-28T05:03:32;7.00;99.90
23744;DHT22;12052;53.478;10.182;2022-09-28T05:05:57;6.90;99.90
23744;DHT22;12052;53.478;10.182;2022-09-28T05:08:23;6.90;99.90
23744;DHT22;12052;53.478;10.182;2022-09-28T05:10:59;6.80;99.90
23744;DHT22;12052;53.478;10.182;2022-09-28T05:13:26;6.80;99.90
23744;DHT22;12052;53.478;10.182;2022-09-28T05:15:53;6.80;99.90
23744;DHT22;12052;53.478;10.182;2022-09-28T05:18:19;6.80;99.90
23744;DHT22;12052;53.478;10.182;2022-09-28T05:20:45;6.80;99.90
23744;DHT22;12052;53.478;10.182;2022-09-28T05:23:11;6.80;99.90
23744;DHT22;12052;53.478;10.182;2022-09-28T05:25:41;6.90;99.90
23744;DHT22;12052;53.478;10.182;2022-09-28T05:28:07;6.90;99.90
23744;DHT22;12052;53.478;10.182;2022-09-28T05:30:33;6.90;99.90
23744;DHT22;12052;53.478;10.182;2022-09-28T05:32:59;7.00;99.90
23744;DHT22;12052;53.478;10.182;2022-09-28T05:35:25;7.00;99.90
23744;DHT22;12052;53.478;10.182;2022-09-28T05:37:51;7.00;99.90
23744;DHT22;12052;53.478;10.182;2022-09-28T05:40:16;7.00;99.90
23744;DHT22;12052;53.478;10.182;2022-09-28T05:42:43;7.00;99.90
23744;DHT22;12052;53.478;10.182;2022-09-28T05:45:09;7.00;99.90
23744;DHT22;12052;53.478;10.182;2022-09-28T05:47:39;7.00;99.90
23744;DHT22;12052;53.478;10.182;2022-09-28T05:50:07;7.10;99.90
23744;DHT22;12052;53.478;10.182;2022-09-28T05:52:33;7.10;99.90
23744;DHT22;12052;53.478;10.182;2022-09-28T05:54:58;7.10;99.90
23744;DHT22;12052;53.478;10.182;2022-09-28T05:57:24;7.20;99.90
23744;DHT22;12052;53.478;10.182;2022-09-28T05:59:49;7.20;99.90
23744;DHT22;12052;53.478;10.182;2022-09-28T06:02:15;7.10;99.90
23744;DHT22;12052;53.478;10.182;2022-09-28T06:04:40;7.20;99.90
23744;DHT22;12052;53.478;10.182;2022-09-28T06:07:06;7.20;99.90
23744;DHT22;12052;53.478;10.182;2022-09-28T06:09:31;7.20;99.90
23744;DHT22;12052;53.478;10.182;2022-09-28T06:11:57;7.20;99.90
23744;DHT22;12052;53.478;10.182;2022-09-28T06:14:24;7.30;99.90
23744;DHT22;12052;53.478;10.182;2022-09-28T06:16:50;7.30;99.90
23744;DHT22;12052;53.478;10.182;2022-09-28T06:19:15;7.30;99.90
23744;DHT22;12052;53.478;10.182;2022-09-28T06:21:41;7.30;99.90
23744;DHT22;12052;53.478;10.182;2022-09-28T06:24:06;7.40;99.90
23744;DHT22;12052;53.478;10.182;2022-09-28T06:26:32;7.40;99.90
23744;DHT22;12052;53.478;10.182;2022-09-28T06:28:58;7.30;99.90
23744;DHT22;12052;53.478;10.182;2022-09-28T06:31:25;7.30;99.90
23744;DHT22;12052;53.478;10.182;2022-09-28T06:33:51;7.30;99.90
23744;DHT22;12052;53.478;10.182;2022-09-28T06:36:17;7.30;99.90
23744;DHT22;12052;53.478;10.182;2022-09-28T06:38:43;7.30;99.90
23744;DHT22;12052;53.478;10.182;2022-09-28T06:41:10;7.30;99.90
23744;DHT22;12052;53.478;10.182;2022-09-28T06:43:36;7.40;99.90
23744;DHT22;12052;53.478;10.182;2022-09-28T06:46:05;7.40;99.90
23744;DHT22;12052;53.478;10.182;2022-09-28T06:48:31;7.40;99.90
23744;DHT22;12052;53.478;10.182;2022-09-28T06:50:58;7.50;99.90
23744;DHT22;12052;53.478;10.182;2022-09-28T06:53:25;7.50;99.90
23744;DHT22;12052;53.478;10.182;2022-09-28T06:55:54;7.50;99.90
23744;DHT22;12052;53.478;10.182;2022-09-28T06:58:22;7.50;99.90
23744;DHT22;12052;53.478;10.182;2022-09-28T07:00:50;7.50;99.90
23744;DHT22;12052;53.478;10.182;2022-09-28T07:03:18;7.60;99.90
23744;DHT22;12052;53.478;10.182;2022-09-28T07:05:50;7.60;99.90
23744;DHT22;12052;53.478;10.182;2022-09-28T07:08:19;7.70;99.90
23744;DHT22;12052;53.478;10.182;2022-09-28T07:10:46;7.70;99.90
23744;DHT22;12052;53.478;10.182;2022-09-28T07:13:13;7.70;99.90
23744;DHT22;12052;53.478;10.182;2022-09-28T07:15:39;7.80;99.90
23744;DHT22;12052;53.478;10.182;2022-09-28T07:18:06;7.80;99.90
23744;DHT22;12052;53.478;10.182;2022-09-28T07:20:34;7.90;99.90
23744;DHT22;12052;53.478;10.182;2022-09-28T07:23:02;7.90;99.90
23744;DHT22;12052;53.478;10.182;2022-09-28T07:25:28;7.80;99.90
23744;DHT22;12052;53.478;10.182;2022-09-28T07:27:58;7.90;99.90
23744;DHT22;12052;53.478;10.182;2022-09-28T07:30:28;7.90;99.90
23744;DHT22;12052;53.478;10.182;2022-09-28T07:32:55;7.90;99.90
23744;DHT22;12052;53.478;10.182;2022-09-28T07:35:21;7.90;99.90
23744;DHT22;12052;53.478;10.182;2022-09-28T07:37:47;7.90;99.90
23744;DHT22;12052;53.478;10.182;2022-09-28T07:40:12;7.90;99.90
23744;DHT22;12052;53.478;10.182;2022-09-28T07:43:03;8.00;99.90
23744;DHT22;12052;53.478;10.182;2022-09-28T07:45:28;8.00;99.90
23744;DHT22;12052;53.478;10.182;2022-09-28T07:47:55;8.00;99.90
23744;DHT22;12052;53.478;10.182;2022-09-28T07:50:21;8.00;99.90
23744;DHT22;12052;53.478;10.182;2022-09-28T07:52:47;8.10;99.90
23744;DHT22;12052;53.478;10.182;2022-09-28T07:55:13;8.10;99.90
23744;DHT22;12052;53.478;10.182;2022-09-28T07:57:39;8.10;99.90
23744;DHT22;12052;53.478;10.182;2022-09-28T08:00:05;8.20;99.90
23744;DHT22;12052;53.478;10.182;2022-09-28T08:02:32;8.20;99.90
23744;DHT22;12052;53.478;10.182;2022-09-28T08:04:59;8.20;99.90
23744;DHT22;12052;53.478;10.182;2022-09-28T08:07:25;8.20;99.90
23744;DHT22;12052;53.478;10.182;2022-09-28T08:09:50;8.20;99.90
23744;DHT22;12052;53.478;10.182;2022-09-28T08:12:16;8.30;99.90
23744;DHT22;12052;53.478;10.182;2022-09-28T08:14:44;8.30;99.90
23744;DHT22;12052;53.478;10.182;2022-09-28T08:17:10;8.40;99.90
23744;DHT22;12052;53.478;10.182;2022-09-28T08:19:35;8.40;99.90
23744;DHT22;12052;53.478;10.182;2022-09-28T08:22:20;8.40;99.90
23744;DHT22;12052;53.478;10.182;2022-09-28T08:24:46;8.40;99.90
23744;DHT22;12052;53.478;10.182;2022-09-28T08:27:13;8.50;99.90
23744;DHT22;12052;53.478;10.182;2022-09-28T08:29:39;8.60;99.90
23744;DHT22;12052;53.478;10.182;2022-09-28T08:32:08;8.70;99.90
23744;DHT22;12052;53.478;10.182;2022-09-28T08:34:38;8.70;99.90
23744;DHT22;12052;53.478;10.182;2022-09-28T08:37:05;8.70;99.90
23744;DHT22;12052;53.478;10.182;2022-09-28T08:39:30;8.70;99.90
23744;DHT22;12052;53.478;10.182;2022-09-28T08:42:03;8.80;99.90
23744;DHT22;12052;53.478;10.182;2022-09-28T08:44:47;8.80;99.90
23744;DHT22;12052;53.478;10.182;2022-09-28T08:47:30;8.80;99.90
23744;DHT22;12052;53.478;10.182;2022-09-28T08:50:21;8.80;99.90
23744;DHT22;12052;53.478;10.182;2022-09-28T08:52:53;8.80;99.90
23744;DHT22;12052;53.478;10.182;2022-09-28T08:55:32;8.80;99.90
23744;DHT22;12052;53.478;10.182;2022-09-28T08:58:15;8.90;99.90
23744;DHT22;12052;53.478;10.182;2022-09-28T09:00:45;8.90;99.90
23744;DHT22;12052;53.478;10.182;2022-09-28T09:03:15;8.80;99.90
23744;DHT22;12052;53.478;10.182;2022-09-28T09:06:17;8.80;99.90
23744;DHT22;12052;53.478;10.182;2022-09-28T09:09:04;8.80;99.90
23744;DHT22;12052;53.478;10.182;2022-09-28T09:17:35;8.80;99.90
23744;DHT22;12052;53.478;10.182;2022-09-28T09:22:59;8.80;99.90
23744;DHT22;12052;53.478;10.182;2022-09-28T09:25:39;8.80;99.90
23744;DHT22;12052;53.478;10.182;2022-09-28T09:36:48;9.00;99.90
23744;DHT22;12052;53.478;10.182;2022-09-28T09:42:10;9.10;99.90
23744;DHT22;12052;53.478;10.182;2022-09-28T09:47:49;9.20;99.90
23744;DHT22;12052;53.478;10.182;2022-09-28T09:50:48;9.20;99.90
23744;DHT22;12052;53.478;10.182;2022-09-28T09:53:36;9.30;99.90
23744;DHT22;12052;53.478;10.182;2022-09-28T09:56:24;9.30;99.90
23744;DHT22;12052;53.478;10.182;2022-09-28T09:58:53;9.20;99.90
23744;DHT22;12052;53.478;10.182;2022-09-28T10:01:38;9.40;99.90
23744;DHT22;12052;53.478;10.182;2022-09-28T10:04:05;9.40;99.90
23744;DHT22;12052;53.478;10.182;2022-09-28T10:06:34;9.30;99.90
23744;DHT22;12052;53.478;10.182;2022-09-28T10:09:19;9.30;99.90
23744;DHT22;12052;53.478;10.182;2022-09-28T10:11:47;9.30;99.90
23744;DHT22;12052;53.478;10.182;2022-09-28T10:14:18;9.30;99.90
23744;DHT22;12052;53.478;10.182;2022-09-28T10:16:46;9.40;99.90
23744;DHT22;12052;53.478;10.182;2022-09-28T10:19:13;9.40;99.90
23744;DHT22;12052;53.478;10.182;2022-09-28T10:21:40;9.50;99.90
23744;DHT22;12052;53.478;10.182;2022-09-28T10:24:15;9.50;99.90
23744;DHT22;12052;53.478;10.182;2022-09-28T10:26:45;9.50;99.90
23744;DHT22;12052;53.478;10.182;2022-09-28T10:29:16;9.60;99.90
23744;DHT22;12052;53.478;10.182;2022-09-28T10:31:48;9.60;99.90
23744;DHT22;12052;53.478;10.182;2022-09-28T10:34:16;9.70;99.90
23744;DHT22;12052;53.478;10.182;2022-09-28T10:36:55;9.80;99.90
23744;DHT22;12052;53.478;10.182;2022-09-28T10:39:28;9.80;99.90
23744;DHT22;12052;53.478;10.182;2022-09-28T10:41:55;9.90;99.90
23744;DHT22;12052;53.478;10.182;2022-09-28T10:44:23;9.80;99.90
23744;DHT22;12052;53.478;10.182;2022-09-28T10:46:57;9.70;99.90
23744;DHT22;12052;53.478;10.182;2022-09-28T10:49:24;9.80;99.90
23744;DHT22;12052;53.478;10.182;2022-09-28T10:51:52;9.80;99.90
23744;DHT22;12052;53.478;10.182;2022-09-28T10:54:29;9.90;99.90
23744;DHT22;12052;53.478;10.182;2022-09-28T10:56:56;10.00;99.90
23744;DHT22;12052;53.478;10.182;2022-09-28T11:01:56;10.10;99.90
23744;DHT22;12052;53.478;10.182;2022-09-28T11:04:25;10.00;99.90
23744;DHT22;12052;53.478;10.182;2022-09-28T11:06:52;10.00;99.90
23744;DHT22;12052;53.478;10.182;2022-09-28T11:09:41;10.00;99.90
23744;DHT22;12052;53.478;10.182;2022-09-28T11:12:14;10.00;99.90
23744;DHT22;12052;53.478;10.182;2022-09-28T11:14:41;10.00;99.90
23744;DHT22;12052;53.478;10.182;2022-09-28T11:17:28;10.00;99.90
23744;DHT22;12052;53.478;10.182;2022-09-28T11:19:58;10.10;99.90
23744;DHT22;12052;53.478;10.182;2022-09-28T11:22:42;10.10;99.90
23744;DHT22;12052;53.478;10.182;2022-09-28T11:28:02;10.10;99.90
23744;DHT22;12052;53.478;10.182;2022-09-28T11:30:45;10.10;99.90
23744;DHT22;12052;53.478;10.182;2022-09-28T11:44:36;10.30;99.90
23744;DHT22;12052;53.478;10.182;2022-09-28T11:52:21;10.70;99.90
23744;DHT22;12052;53.478;10.182;2022-09-28T11:54:56;10.90;99.90
23744;DHT22;12052;53.478;10.182;2022-09-28T11:57:27;11.10;99.90
23744;DHT22;12052;53.478;10.182;2022-09-28T12:00:00;11.20;99.90
23744;DHT22;12052;53.478;10.182;2022-09-28T12:02:38;11.20;99.90
23744;DHT22;12052;53.478;10.182;2022-09-28T12:05:23;11.10;99.90
23744;DHT22;12052;53.478;10.182;2022-09-28T12:07:54;11.30;99.90
23744;DHT22;12052;53.478;10.182;2022-09-28T12:13:05;11.40;99.90
23744;DHT22;12052;53.478;10.182;2022-09-28T12:15:56;11.50;99.90
23744;DHT22;12052;53.478;10.182;2022-09-28T12:18:28;11.60;99.90
23744;DHT22;12052;53.478;10.182;2022-09-28T12:23:52;11.80;99.90
23744;DHT22;12052;53.478;10.182;2022-09-28T12:26:22;11.80;99.90
23744;DHT22;12052;53.478;10.182;2022-09-28T12:28:55;11.70;99.90
23744;DHT22;12052;53.478;10.182;2022-09-28T12:31:28;11.70;99.90
23744;DHT22;12052;53.478;10.182;2022-09-28T12:33:56;11.60;99.90
23744;DHT22;12052;53.478;10.182;2022-09-28T12:36:43;11.60;99.90
23744;DHT22;12052;53.478;10.182;2022-09-28T12:39:26;11.70;99.90
23744;DHT22;12052;53.478;10.182;2022-09-28T12:42:08;11.60;99.90
23744;DHT22;12052;53.478;10.182;2022-09-28T12:47:20;11.60;99.90
23744;DHT22;12052;53.478;10.182;2022-09-28T12:53:03;11.60;99.90
23744;DHT22;12052;53.478;10.182;2022-09-28T12:55:58;11.70;99.90
23744;DHT22;12052;53.478;10.182;2022-09-28T12:58:52;11.50;99.90
23744;DHT22;12052;53.478;10.182;2022-09-28T13:01:31;11.60;99.90
23744;DHT22;12052;53.478;10.182;2022-09-28T13:04:13;11.60;99.90
23744;DHT22;12052;53.478;10.182;2022-09-28T13:06:59;11.60;99.90
23744;DHT22;12052;53.478;10.182;2022-09-28T13:09:33;11.60;99.90
23744;DHT22;12052;53.478;10.182;2022-09-28T13:12:24;11.60;99.90
23744;DHT22;12052;53.478;10.182;2022-09-28T13:17:58;11.50;99.90
23744;DHT22;12052;53.478;10.182;2022-09-28T13:23:38;11.40;99.90
23744;DHT22;12052;53.478;10.182;2022-09-28T13:26:30;11.40;99.90
23744;DHT22;12052;53.478;10.182;2022-09-28T13:29:22;11.30;99.90
23744;DHT22;12052;53.478;10.182;2022-09-28T13:31:56;11.40;99.90
23744;DHT22;12052;53.478;10.182;2022-09-28T13:34:33;11.40;99.90
23744;DHT22;12052;53.478;10.182;2022-09-28T13:37:20;11.30;99.90
23744;DHT22;12052;53.478;10.182;2022-09-28T13:39:51;11.40;99.90
23744;DHT22;12052;53.478;10.182;2022-09-28T13:45:21;11.50;99.90
23744;DHT22;12052;53.478;10.182;2022-09-28T13:56:43;11.70;99.90
23744;DHT22;12052;53.478;10.182;2022-09-28T13:59:20;11.70;99.90
23744;DHT22;12052;53.478;10.182;2022-09-28T14:02:00;11.60;99.90
23744;DHT22;12052;53.478;10.182;2022-09-28T14:04:58;11.60;99.90
23744;DHT22;12052;53.478;10.182;2022-09-28T14:12:48;11.80;99.90
23744;DHT22;12052;53.478;10.182;2022-09-28T14:20:35;11.80;99.90
23744;DHT22;12052;53.478;10.182;2022-09-28T14:25:44;11.70;99.90
23744;DHT22;12052;53.478;10.182;2022-09-28T14:30:50;11.80;99.90
23744;DHT22;12052;53.478;10.182;2022-09-28T14:35:52;11.80;99.90
23744;DHT22;12052;53.478;10.182;2022-09-28T14:38:22;11.80;99.90
23744;DHT22;12052;53.478;10.182;2022-09-28T14:41:10;11.90;99.90
23744;DHT22;12052;53.478;10.182;2022-09-28T14:48:58;12.00;99.90
23744;DHT22;12052;53.478;10.182;2022-09-28T15:02:00;12.00;99.90
23744;DHT22;12052;53.478;10.182;2022-09-28T15:04:30;12.00;99.90
23744;DHT22;12052;53.478;10.182;2022-09-28T15:06:56;12.10;99.90
23744;DHT22;12052;53.478;10.182;2022-09-28T15:09:35;12.10;99.90
23744;DHT22;12052;53.478;10.182;2022-09-28T15:12:10;12.20;99.90
23744;DHT22;12052;53.478;10.182;2022-09-28T15:15:02;12.20;99.90
23744;DHT22;12052;53.478;10.182;2022-09-28T15:17:32;12.20;99.90
23744;DHT22;12052;53.478;10.182;2022-09-28T15:22:47;12.20;99.90
23744;DHT22;12052;53.478;10.182;2022-09-28T15:25:16;12.10;99.90
23744;DHT22;12052;53.478;10.182;2022-09-28T15:27:45;12.10;99.90
23744;DHT22;12052;53.478;10.182;2022-09-28T15:32:55;12.00;99.90
23744;DHT22;12052;53.478;10.182;2022-09-28T15:36:03;12.00;99.90
23744;DHT22;12052;53.478;10.182;2022-09-28T15:38:30;11.90;99.90
23744;DHT22;12052;53.478;10.182;2022-09-28T15:41:02;11.80;99.90
23744;DHT22;12052;53.478;10.182;2022-09-28T15:43:31;11.80;99.90
23744;DHT22;12052;53.478;10.182;2022-09-28T15:46:16;11.70;99.90
23744;DHT22;12052;53.478;10.182;2022-09-28T15:48:54;11.70;99.90
23744;DHT22;12052;53.478;10.182;2022-09-28T15:51:22;11.60;99.90
23744;DHT22;12052;53.478;10.182;2022-09-28T15:54:01;11.60;99.90
23744;DHT22;12052;53.478;10.182;2022-09-28T15:56:29;11.60;99.90
23744;DHT22;12052;53.478;10.182;2022-09-28T16:04:48;11.40;99.90
23744;DHT22;12052;53.478;10.182;2022-09-28T16:07:44;11.40;99.90
23744;DHT22;12052;53.478;10.182;2022-09-28T16:12:54;11.30;99.90
23744;DHT22;12052;53.478;10.182;2022-09-28T16:15:27;11.20;99.90
23744;DHT22;12052;53.478;10.182;2022-09-28T16:17:54;11.20;99.90
23744;DHT22;12052;53.478;10.182;2022-09-28T16:22:55;11.10;99.90
23744;DHT22;12052;53.478;10.182;2022-09-28T16:25:23;11.10;99.90
23744;DHT22;12052;53.478;10.182;2022-09-28T16:27:51;11.10;99.90
23744;DHT22;12052;53.478;10.182;2022-09-28T16:32:57;11.00;99.90
23744;DHT22;12052;53.478;10.182;2022-09-28T16:35:23;11.00;99.90
23744;DHT22;12052;53.478;10.182;2022-09-28T16:40:31;10.80;99.90
23744;DHT22;12052;53.478;10.182;2022-09-28T16:42:59;10.80;99.90
23744;DHT22;12052;53.478;10.182;2022-09-28T16:45:27;10.80;99.90
23744;DHT22;12052;53.478;10.182;2022-09-28T16:47:55;10.80;99.90
23744;DHT22;12052;53.478;10.182;2022-09-28T16:50:22;10.70;99.90
23744;DHT22;12052;53.478;10.182;2022-09-28T16:53:19;10.70;99.90
23744;DHT22;12052;53.478;10.182;2022-09-28T16:56:03;10.60;99.90
23744;DHT22;12052;53.478;10.182;2022-09-28T16:58:29;10.50;99.90
23744;DHT22;12052;53.478;10.182;2022-09-28T17:00:59;10.50;99.90
23744;DHT22;12052;53.478;10.182;2022-09-28T17:03:25;10.40;99.90
23744;DHT22;12052;53.478;10.182;2022-09-28T17:05:51;10.30;99.90
23744;DHT22;12052;53.478;10.182;2022-09-28T17:08:19;10.20;99.90
23744;DHT22;12052;53.478;10.182;2022-09-28T17:10:51;10.10;99.90
23744;DHT22;12052;53.478;10.182;2022-09-28T17:13:21;10.10;99.90
23744;DHT22;12052;53.478;10.182;2022-09-28T17:15:58;10.00;99.90
23744;DHT22;12052;53.478;10.182;2022-09-28T17:18:24;10.00;99.90
23744;DHT22;12052;53.478;10.182;2022-09-28T17:20:51;9.90;99.90
23744;DHT22;12052;53.478;10.182;2022-09-28T17:23:19;9.90;99.90
23744;DHT22;12052;53.478;10.182;2022-09-28T17:25:45;9.80;99.90
23744;DHT22;12052;53.478;10.182;2022-09-28T17:28:32;9.80;99.90
23744;DHT22;12052;53.478;10.182;2022-09-28T17:30:58;9.80;99.90
23744;DHT22;12052;53.478;10.182;2022-09-28T17:33:24;9.70;99.90
23744;DHT22;12052;53.478;10.182;2022-09-28T17:36:00;9.70;99.90
23744;DHT22;12052;53.478;10.182;2022-09-28T17:38:26;9.60;99.90
23744;DHT22;12052;53.478;10.182;2022-09-28T17:40:52;9.50;99.90
23744;DHT22;12052;53.478;10.182;2022-09-28T17:43:17;9.40;99.90
23744;DHT22;12052;53.478;10.182;2022-09-28T17:45:45;9.40;99.90
23744;DHT22;12052;53.478;10.182;2022-09-28T17:48:14;9.40;99.90
23744;DHT22;12052;53.478;10.182;2022-09-28T17:50:41;9.30;99.90
23744;DHT22;12052;53.478;10.182;2022-09-28T17:53:07;9.30;99.90
23744;DHT22;12052;53.478;10.182;2022-09-28T17:55:34;9.30;99.90
23744;DHT22;12052;53.478;10.182;2022-09-28T17:58:07;9.20;99.90
23744;DHT22;12052;53.478;10.182;2022-09-28T18:00:35;9.20;99.90
23744;DHT22;12052;53.478;10.182;2022-09-28T18:03:01;9.20;99.90
23744;DHT22;12052;53.478;10.182;2022-09-28T18:05:26;9.10;99.90
23744;DHT22;12052;53.478;10.182;2022-09-28T18:07:53;9.20;99.90
23744;DHT22;12052;53.478;10.182;2022-09-28T18:10:21;9.20;99.90
23744;DHT22;12052;53.478;10.182;2022-09-28T18:12:48;9.10;99.90
23744;DHT22;12052;53.478;10.182;2022-09-28T18:15:15;9.10;99.90
23744;DHT22;12052;53.478;10.182;2022-09-28T18:17:42;9.10;99.90
23744;DHT22;12052;53.478;10.182;2022-09-28T18:20:09;9.10;99.90
23744;DHT22;12052;53.478;10.182;2022-09-28T18:22:35;9.10;99.90
23744;DHT22;12052;53.478;10.182;2022-09-28T18:25:01;9.10;99.90
23744;DHT22;12052;53.478;10.182;2022-09-28T18:27:27;9.00;99.90
23744;DHT22;12052;53.478;10.182;2022-09-28T18:29:54;9.00;99.90
23744;DHT22;12052;53.478;10.182;2022-09-28T18:32:20;9.00;99.90